TAM3567 SBEG-SBGR
Flight info
| Callsign | TAM3567 |
|---|---|
| Flight time | N/A |
| Altitude | 35000 |
| Route | ETAXA UZ87 OBLUG UZ42 ZARES |
| Aircraft | A321/M-SDE3FGHIRWY/LB1 |
Departure
| Time | 2026-04-29 23:34 |
|---|---|
| Airport | Eduardo Gomes International Airport (SBEG) |
Arrival
| Time | N/A |
|---|---|
| Airport | São Paulo/Guarulhos–Governor André Franco Montoro International Airport (SBGR) |
| Time | Latitude | Longitude | Altitude | Speed | Heading |
|---|---|---|---|---|---|
| 2026-04-29 23:00 | -3.03270 | -60.04496 | 291 ft | 0 kts | 350° |
| 2026-04-29 23:22 | -3.03289 | -60.04493 | 286 ft | 4 kts | 345° |
| 2026-04-29 23:23 | -3.03314 | -60.04484 | 286 ft | 4 kts | 333° |
| 2026-04-29 23:23 | -3.03335 | -60.04469 | 286 ft | 4 kts | 300° |
| 2026-04-29 23:23 | -3.03340 | -60.04454 | 288 ft | 0 kts | 257° |
| 2026-04-29 23:27 | -3.03343 | -60.04467 | 286 ft | 5 kts | 257° |
| 2026-04-29 23:27 | -3.03354 | -60.04533 | 286 ft | 14 kts | 264° |
| 2026-04-29 23:27 | -3.03358 | -60.04635 | 286 ft | 13 kts | 271° |
| 2026-04-29 23:28 | -3.03360 | -60.04722 | 286 ft | 12 kts | 259° |
| 2026-04-29 23:28 | -3.03393 | -60.04797 | 290 ft | 12 kts | 236° |
| 2026-04-29 23:28 | -3.03446 | -60.04854 | 288 ft | 11 kts | 222° |
| 2026-04-29 23:28 | -3.03506 | -60.04898 | 286 ft | 10 kts | 221° |
| 2026-04-29 23:29 | -3.03552 | -60.04949 | 286 ft | 10 kts | 234° |
| 2026-04-29 23:29 | -3.03582 | -60.05007 | 286 ft | 9 kts | 249° |
| 2026-04-29 23:29 | -3.03599 | -60.05066 | 286 ft | 9 kts | 255° |
| 2026-04-29 23:29 | -3.03617 | -60.05131 | 286 ft | 11 kts | 255° |
| 2026-04-29 23:30 | -3.03642 | -60.05227 | 286 ft | 15 kts | 255° |
| 2026-04-29 23:30 | -3.03668 | -60.05328 | 287 ft | 15 kts | 257° |
| 2026-04-29 23:30 | -3.03686 | -60.05429 | 286 ft | 14 kts | 263° |
| 2026-04-29 23:30 | -3.03692 | -60.05528 | 286 ft | 14 kts | 269° |
| 2026-04-29 23:31 | -3.03692 | -60.05624 | 286 ft | 14 kts | 270° |
| 2026-04-29 23:31 | -3.03691 | -60.05716 | 286 ft | 13 kts | 270° |
| 2026-04-29 23:31 | -3.03691 | -60.05805 | 290 ft | 12 kts | 270° |
| 2026-04-29 23:31 | -3.03691 | -60.05890 | 286 ft | 12 kts | 270° |
| 2026-04-29 23:32 | -3.03691 | -60.05973 | 286 ft | 12 kts | 270° |
| 2026-04-29 23:32 | -3.03691 | -60.06054 | 286 ft | 11 kts | 270° |
| 2026-04-29 23:32 | -3.03706 | -60.06127 | 286 ft | 11 kts | 240° |
| 2026-04-29 23:32 | -3.03762 | -60.06163 | 286 ft | 9 kts | 194° |
| 2026-04-29 23:33 | -3.03820 | -60.06164 | 287 ft | 8 kts | 177° |
| 2026-04-29 23:33 | -3.03856 | -60.06141 | 287 ft | 6 kts | 115° |
| 2026-04-29 23:33 | -3.03857 | -60.06100 | 287 ft | 9 kts | 90° |
| 2026-04-29 23:33 | -3.03858 | -60.05791 | 286 ft | 85 kts | 90° |
| 2026-04-29 23:34 | -3.03860 | -60.04967 | 287 ft | 148 kts | 90° |
| 2026-04-29 23:34 | -3.03878 | -60.03831 | 657 ft | 168 kts | 91° |
| 2026-04-29 23:34 | -3.03919 | -60.02646 | 1345 ft | 173 kts | 92° |
| 2026-04-29 23:34 | -3.03969 | -60.01445 | 1977 ft | 174 kts | 91° |
| 2026-04-29 23:35 | -3.04156 | -60.00179 | 2147 ft | 198 kts | 116° |
| 2026-04-29 23:35 | -3.05134 | -59.99128 | 2313 ft | 220 kts | 142° |
| 2026-04-29 23:35 | -3.06479 | -59.98225 | 2510 ft | 245 kts | 148° |
| 2026-04-29 23:35 | -3.07999 | -59.97310 | 2926 ft | 263 kts | 148° |
| 2026-04-29 23:36 | -3.09596 | -59.96357 | 3629 ft | 270 kts | 148° |
| 2026-04-29 23:36 | -3.11206 | -59.95373 | 4420 ft | 273 kts | 147° |
| 2026-04-29 23:36 | -3.12818 | -59.94360 | 5204 ft | 274 kts | 147° |
| 2026-04-29 23:36 | -3.14433 | -59.93322 | 5954 ft | 277 kts | 146° |
| 2026-04-29 23:37 | -3.16057 | -59.92263 | 6698 ft | 280 kts | 146° |
| 2026-04-29 23:37 | -3.17692 | -59.91188 | 7410 ft | 283 kts | 146° |
| 2026-04-29 23:37 | -3.19322 | -59.90110 | 8089 ft | 286 kts | 146° |
| 2026-04-29 23:37 | -3.20989 | -59.89005 | 8765 ft | 289 kts | 146° |
| 2026-04-29 23:38 | -3.22674 | -59.87889 | 9408 ft | 292 kts | 146° |
| 2026-04-29 23:38 | -3.24380 | -59.86759 | 9807 ft | 295 kts | 146° |
| 2026-04-29 23:38 | -3.26129 | -59.85601 | 10025 ft | 312 kts | 146° |
| 2026-04-29 23:38 | -3.28000 | -59.84361 | 10192 ft | 331 kts | 146° |
| 2026-04-29 23:39 | -3.29946 | -59.83073 | 10669 ft | 339 kts | 146° |
| 2026-04-29 23:39 | -3.31924 | -59.81767 | 11285 ft | 342 kts | 146° |
| 2026-04-29 23:39 | -3.33919 | -59.80450 | 11933 ft | 345 kts | 146° |
| 2026-04-29 23:39 | -3.35928 | -59.79123 | 12576 ft | 347 kts | 146° |
| 2026-04-29 23:40 | -3.37951 | -59.77785 | 13220 ft | 350 kts | 146° |
| 2026-04-29 23:40 | -3.39990 | -59.76436 | 13832 ft | 353 kts | 146° |
| 2026-04-29 23:40 | -3.42042 | -59.75078 | 14438 ft | 355 kts | 146° |
| 2026-04-29 23:40 | -3.44113 | -59.73709 | 15053 ft | 358 kts | 146° |
| 2026-04-29 23:41 | -3.46198 | -59.72333 | 15640 ft | 360 kts | 145° |
| 2026-04-29 23:41 | -3.48296 | -59.70948 | 16223 ft | 363 kts | 145° |
| 2026-04-29 23:41 | -3.50407 | -59.69552 | 16804 ft | 365 kts | 145° |
| 2026-04-29 23:41 | -3.52526 | -59.68147 | 17370 ft | 368 kts | 145° |
| 2026-04-29 23:42 | -3.54754 | -59.66847 | 17906 ft | 371 kts | 150° |
| 2026-04-29 23:42 | -3.57036 | -59.65620 | 18436 ft | 374 kts | 150° |
| 2026-04-29 23:42 | -3.59331 | -59.64387 | 18935 ft | 377 kts | 149° |
| 2026-04-29 23:42 | -3.61651 | -59.63139 | 19406 ft | 379 kts | 149° |
| 2026-04-29 23:43 | -3.63985 | -59.61882 | 19871 ft | 382 kts | 149° |
| 2026-04-29 23:43 | -3.66334 | -59.60616 | 20317 ft | 385 kts | 149° |
| 2026-04-29 23:43 | -3.68699 | -59.59338 | 20736 ft | 388 kts | 149° |
| 2026-04-29 23:43 | -3.71081 | -59.58051 | 21142 ft | 391 kts | 149° |
| 2026-04-29 23:44 | -3.73483 | -59.56758 | 21545 ft | 393 kts | 149° |
| 2026-04-29 23:44 | -3.75902 | -59.55458 | 21945 ft | 396 kts | 149° |
| 2026-04-29 23:44 | -3.78331 | -59.54150 | 22319 ft | 398 kts | 149° |
| 2026-04-29 23:44 | -3.80779 | -59.52832 | 22688 ft | 401 kts | 149° |
| 2026-04-29 23:45 | -3.83244 | -59.51503 | 23041 ft | 403 kts | 149° |
| 2026-04-29 23:45 | -3.85722 | -59.50168 | 23379 ft | 406 kts | 149° |
| 2026-04-29 23:45 | -3.88214 | -59.48826 | 23727 ft | 408 kts | 149° |
| 2026-04-29 23:45 | -3.90720 | -59.47475 | 24041 ft | 410 kts | 149° |
| 2026-04-29 23:46 | -3.93237 | -59.46114 | 24356 ft | 412 kts | 149° |
| 2026-04-29 23:46 | -3.95773 | -59.44746 | 24656 ft | 415 kts | 149° |
| 2026-04-29 23:46 | -3.98320 | -59.43373 | 24947 ft | 417 kts | 149° |
| 2026-04-29 23:46 | -4.00886 | -59.41991 | 25235 ft | 420 kts | 149° |
| 2026-04-29 23:47 | -4.03467 | -59.40600 | 25522 ft | 423 kts | 149° |
| 2026-04-29 23:47 | -4.06063 | -59.39199 | 25822 ft | 425 kts | 149° |
| 2026-04-29 23:47 | -4.08676 | -59.37787 | 26094 ft | 428 kts | 149° |
| 2026-04-29 23:47 | -4.11303 | -59.36368 | 26370 ft | 430 kts | 149° |
| 2026-04-29 23:48 | -4.13948 | -59.34940 | 26643 ft | 433 kts | 149° |
| 2026-04-29 23:48 | -4.16606 | -59.33507 | 26910 ft | 435 kts | 150° |
| 2026-04-29 23:48 | -4.19278 | -59.32069 | 27172 ft | 437 kts | 150° |
| 2026-04-29 23:48 | -4.21967 | -59.30622 | 27422 ft | 440 kts | 150° |
| 2026-04-29 23:49 | -4.23756 | -59.29661 | 27597 ft | 441 kts | 150° |
| 2026-04-29 23:49 | -4.26464 | -59.28201 | 27839 ft | 443 kts | 150° |
| 2026-04-29 23:49 | -4.29187 | -59.26731 | 28088 ft | 446 kts | 150° |
| 2026-04-29 23:49 | -4.31922 | -59.25254 | 28332 ft | 448 kts | 150° |
| 2026-04-29 23:50 | -4.34670 | -59.23775 | 28572 ft | 450 kts | 150° |
| 2026-04-29 23:50 | -4.37436 | -59.22287 | 28806 ft | 452 kts | 150° |
| 2026-04-29 23:50 | -4.42999 | -59.19283 | 29249 ft | 456 kts | 150° |
| 2026-04-29 23:51 | -4.45796 | -59.17768 | 29462 ft | 458 kts | 150° |
| 2026-04-29 23:51 | -4.48606 | -59.16251 | 29684 ft | 460 kts | 150° |
| 2026-04-29 23:51 | -4.51429 | -59.14728 | 29898 ft | 462 kts | 150° |
| 2026-04-29 23:51 | -4.54265 | -59.13199 | 30096 ft | 464 kts | 150° |
| 2026-04-29 23:52 | -4.57112 | -59.11662 | 30317 ft | 466 kts | 150° |
| 2026-04-29 23:52 | -4.59973 | -59.10117 | 30531 ft | 468 kts | 150° |